sensor_id;sensor_type;location;lat;lon;timestamp;P1;durP1;ratioP1;P2;durP2;ratioP2
37299;SDS011;23184;51.902;12.836;2022-09-13T00:00:38;5.97;;;5.10;;
37299;SDS011;23184;51.902;12.836;2022-09-13T00:03:05;7.38;;;5.60;;
37299;SDS011;23184;51.902;12.836;2022-09-13T00:05:32;7.38;;;5.90;;
37299;SDS011;23184;51.902;12.836;2022-09-13T00:07:57;9.10;;;4.88;;
37299;SDS011;23184;51.902;12.836;2022-09-13T00:10:23;6.20;;;5.28;;
37299;SDS011;23184;51.902;12.836;2022-09-13T00:12:49;8.00;;;5.75;;
37299;SDS011;23184;51.902;12.836;2022-09-13T00:15:15;7.95;;;5.43;;
37299;SDS011;23184;51.902;12.836;2022-09-13T00:17:40;7.47;;;6.20;;
37299;SDS011;23184;51.902;12.836;2022-09-13T00:20:06;8.90;;;5.82;;
37299;SDS011;23184;51.902;12.836;2022-09-13T00:22:32;9.02;;;5.95;;
37299;SDS011;23184;51.902;12.836;2022-09-13T00:24:58;6.85;;;5.68;;
37299;SDS011;23184;51.902;12.836;2022-09-13T00:27:24;8.45;;;5.78;;
37299;SDS011;23184;51.902;12.836;2022-09-13T00:29:49;6.97;;;6.28;;
37299;SDS011;23184;51.902;12.836;2022-09-13T00:32:15;7.57;;;6.28;;
37299;SDS011;23184;51.902;12.836;2022-09-13T00:34:41;7.68;;;6.53;;
37299;SDS011;23184;51.902;12.836;2022-09-13T00:37:06;8.85;;;6.05;;
37299;SDS011;23184;51.902;12.836;2022-09-13T00:39:33;9.02;;;6.50;;
37299;SDS011;23184;51.902;12.836;2022-09-13T00:41:59;9.13;;;6.93;;
37299;SDS011;23184;51.902;12.836;2022-09-13T00:47:23;11.10;;;6.53;;
37299;SDS011;23184;51.902;12.836;2022-09-13T00:49:54;9.43;;;6.13;;
37299;SDS011;23184;51.902;12.836;2022-09-13T00:52:34;7.70;;;6.03;;
37299;SDS011;23184;51.902;12.836;2022-09-13T00:55:04;11.55;;;6.60;;
37299;SDS011;23184;51.902;12.836;2022-09-13T00:57:44;6.97;;;6.00;;
37299;SDS011;23184;51.902;12.836;2022-09-13T01:00:10;9.25;;;6.65;;
37299;SDS011;23184;51.902;12.836;2022-09-13T01:02:41;7.57;;;6.70;;
37299;SDS011;23184;51.902;12.836;2022-09-13T01:05:10;9.98;;;6.60;;
37299;SDS011;23184;51.902;12.836;2022-09-13T01:07:37;10.05;;;6.63;;
37299;SDS011;23184;51.902;12.836;2022-09-13T01:10:04;9.65;;;6.60;;
37299;SDS011;23184;51.902;12.836;2022-09-13T01:15:20;9.25;;;7.25;;
37299;SDS011;23184;51.902;12.836;2022-09-13T01:17:45;9.15;;;7.63;;
37299;SDS011;23184;51.902;12.836;2022-09-13T01:20:12;8.77;;;6.72;;
37299;SDS011;23184;51.902;12.836;2022-09-13T01:25:18;11.05;;;6.78;;
37299;SDS011;23184;51.902;12.836;2022-09-13T01:28:13;12.80;;;6.90;;
37299;SDS011;23184;51.902;12.836;2022-09-13T01:30:54;11.75;;;7.15;;
37299;SDS011;23184;51.902;12.836;2022-09-13T01:34:02;9.82;;;6.53;;
37299;SDS011;23184;51.902;12.836;2022-09-13T01:36:48;11.45;;;7.20;;
37299;SDS011;23184;51.902;12.836;2022-09-13T01:40:02;10.20;;;7.00;;
37299;SDS011;23184;51.902;12.836;2022-09-13T01:42:53;11.27;;;7.18;;
37299;SDS011;23184;51.902;12.836;2022-09-13T01:45:47;7.85;;;7.05;;
37299;SDS011;23184;51.902;12.836;2022-09-13T01:48:24;13.20;;;6.97;;
37299;SDS011;23184;51.902;12.836;2022-09-13T01:51:30;10.38;;;7.55;;
37299;SDS011;23184;51.902;12.836;2022-09-13T01:54:20;10.07;;;7.18;;
37299;SDS011;23184;51.902;12.836;2022-09-13T01:57:00;11.00;;;7.07;;
37299;SDS011;23184;51.902;12.836;2022-09-13T02:02:25;8.93;;;7.22;;
37299;SDS011;23184;51.902;12.836;2022-09-13T02:04:57;8.73;;;7.15;;
37299;SDS011;23184;51.902;12.836;2022-09-13T02:07:35;11.15;;;7.15;;
37299;SDS011;23184;51.902;12.836;2022-09-13T02:10:14;9.07;;;7.22;;
37299;SDS011;23184;51.902;12.836;2022-09-13T02:12:46;9.43;;;7.68;;
37299;SDS011;23184;51.902;12.836;2022-09-13T02:15:16;10.98;;;8.35;;
37299;SDS011;23184;51.902;12.836;2022-09-13T02:17:49;10.07;;;7.80;;
37299;SDS011;23184;51.902;12.836;2022-09-13T02:20:30;9.98;;;8.27;;
37299;SDS011;23184;51.902;12.836;2022-09-13T02:23:02;9.18;;;7.93;;
37299;SDS011;23184;51.902;12.836;2022-09-13T02:25:32;12.65;;;8.43;;
37299;SDS011;23184;51.902;12.836;2022-09-13T02:28:01;10.48;;;7.63;;
37299;SDS011;23184;51.902;12.836;2022-09-13T02:30:31;11.60;;;8.55;;
37299;SDS011;23184;51.902;12.836;2022-09-13T02:33:00;9.77;;;7.78;;
37299;SDS011;23184;51.902;12.836;2022-09-13T02:35:44;12.60;;;7.88;;
37299;SDS011;23184;51.902;12.836;2022-09-13T02:38:17;11.48;;;8.30;;
37299;SDS011;23184;51.902;12.836;2022-09-13T02:40:50;10.32;;;9.15;;
37299;SDS011;23184;51.902;12.836;2022-09-13T02:43:42;11.60;;;8.55;;
37299;SDS011;23184;51.902;12.836;2022-09-13T02:48:55;11.70;;;8.68;;
37299;SDS011;23184;51.902;12.836;2022-09-13T02:51:34;10.63;;;8.80;;
37299;SDS011;23184;51.902;12.836;2022-09-13T02:54:23;9.50;;;7.65;;
37299;SDS011;23184;51.902;12.836;2022-09-13T02:56:58;8.93;;;7.40;;
37299;SDS011;23184;51.902;12.836;2022-09-13T02:59:29;9.02;;;7.70;;
37299;SDS011;23184;51.902;12.836;2022-09-13T03:02:11;11.25;;;8.70;;
37299;SDS011;23184;51.902;12.836;2022-09-13T03:04:40;12.38;;;8.55;;
37299;SDS011;23184;51.902;12.836;2022-09-13T03:07:10;10.48;;;8.15;;
37299;SDS011;23184;51.902;12.836;2022-09-13T03:09:36;9.77;;;8.15;;
37299;SDS011;23184;51.902;12.836;2022-09-13T03:15:09;12.15;;;8.45;;
37299;SDS011;23184;51.902;12.836;2022-09-13T03:17:52;11.85;;;8.48;;
37299;SDS011;23184;51.902;12.836;2022-09-13T03:20:40;10.23;;;8.07;;
37299;SDS011;23184;51.902;12.836;2022-09-13T03:31:35;12.55;;;8.75;;
37299;SDS011;23184;51.902;12.836;2022-09-13T03:37:13;12.75;;;8.50;;
37299;SDS011;23184;51.902;12.836;2022-09-13T03:39:51;13.43;;;9.40;;
37299;SDS011;23184;51.902;12.836;2022-09-13T03:42:22;11.85;;;8.43;;
37299;SDS011;23184;51.902;12.836;2022-09-13T03:44:54;10.98;;;9.20;;
37299;SDS011;23184;51.902;12.836;2022-09-13T03:47:22;14.07;;;8.88;;
37299;SDS011;23184;51.902;12.836;2022-09-13T03:49:50;11.43;;;9.00;;
37299;SDS011;23184;51.902;12.836;2022-09-13T03:52:17;10.35;;;8.65;;
37299;SDS011;23184;51.902;12.836;2022-09-13T03:54:43;12.60;;;8.77;;
37299;SDS011;23184;51.902;12.836;2022-09-13T03:57:13;13.27;;;9.23;;
37299;SDS011;23184;51.902;12.836;2022-09-13T03:59:48;13.95;;;9.68;;
37299;SDS011;23184;51.902;12.836;2022-09-13T04:02:16;11.65;;;8.90;;
37299;SDS011;23184;51.902;12.836;2022-09-13T04:04:43;15.90;;;9.73;;
37299;SDS011;23184;51.902;12.836;2022-09-13T04:07:09;13.77;;;9.77;;
37299;SDS011;23184;51.902;12.836;2022-09-13T04:09:36;13.13;;;9.80;;
37299;SDS011;23184;51.902;12.836;2022-09-13T04:12:01;15.75;;;10.40;;
37299;SDS011;23184;51.902;12.836;2022-09-13T04:14:27;13.80;;;9.20;;
37299;SDS011;23184;51.902;12.836;2022-09-13T04:16:54;14.55;;;9.60;;
37299;SDS011;23184;51.902;12.836;2022-09-13T04:19:21;11.80;;;9.07;;
37299;SDS011;23184;51.902;12.836;2022-09-13T04:21:50;13.50;;;10.02;;
37299;SDS011;23184;51.902;12.836;2022-09-13T04:24:17;15.77;;;9.93;;
37299;SDS011;23184;51.902;12.836;2022-09-13T04:26:43;13.10;;;9.85;;
37299;SDS011;23184;51.902;12.836;2022-09-13T04:29:09;13.77;;;10.18;;
37299;SDS011;23184;51.902;12.836;2022-09-13T04:31:35;13.88;;;10.02;;
37299;SDS011;23184;51.902;12.836;2022-09-13T04:34:01;11.88;;;9.60;;
37299;SDS011;23184;51.902;12.836;2022-09-13T04:36:27;12.07;;;9.52;;
37299;SDS011;23184;51.902;12.836;2022-09-13T04:38:53;12.82;;;9.73;;
37299;SDS011;23184;51.902;12.836;2022-09-13T04:41:18;14.05;;;9.27;;
37299;SDS011;23184;51.902;12.836;2022-09-13T04:43:47;11.80;;;10.07;;
37299;SDS011;23184;51.902;12.836;2022-09-13T04:46:14;11.48;;;9.27;;
37299;SDS011;23184;51.902;12.836;2022-09-13T04:48:39;12.00;;;9.45;;
37299;SDS011;23184;51.902;12.836;2022-09-13T04:51:05;14.18;;;9.80;;
37299;SDS011;23184;51.902;12.836;2022-09-13T04:53:31;13.13;;;9.48;;
37299;SDS011;23184;51.902;12.836;2022-09-13T04:56:03;12.05;;;8.98;;
37299;SDS011;23184;51.902;12.836;2022-09-13T04:58:29;11.90;;;9.60;;
37299;SDS011;23184;51.902;12.836;2022-09-13T05:01:02;9.82;;;8.70;;
37299;SDS011;23184;51.902;12.836;2022-09-13T05:03:29;11.27;;;8.98;;
37299;SDS011;23184;51.902;12.836;2022-09-13T05:06:00;11.35;;;8.55;;
37299;SDS011;23184;51.902;12.836;2022-09-13T05:08:26;12.20;;;9.57;;
37299;SDS011;23184;51.902;12.836;2022-09-13T05:10:52;11.52;;;8.27;;
37299;SDS011;23184;51.902;12.836;2022-09-13T05:13:17;11.85;;;9.35;;
37299;SDS011;23184;51.902;12.836;2022-09-13T05:15:43;11.45;;;8.32;;
37299;SDS011;23184;51.902;12.836;2022-09-13T05:18:08;10.07;;;8.30;;
37299;SDS011;23184;51.902;12.836;2022-09-13T05:20:34;11.35;;;8.65;;
37299;SDS011;23184;51.902;12.836;2022-09-13T05:22:59;11.70;;;9.20;;
37299;SDS011;23184;51.902;12.836;2022-09-13T05:25:25;10.82;;;8.75;;
37299;SDS011;23184;51.902;12.836;2022-09-13T05:27:50;10.73;;;8.02;;
37299;SDS011;23184;51.902;12.836;2022-09-13T05:30:16;10.30;;;7.53;;
37299;SDS011;23184;51.902;12.836;2022-09-13T05:32:41;10.82;;;7.68;;
37299;SDS011;23184;51.902;12.836;2022-09-13T05:35:07;10.52;;;8.18;;
37299;SDS011;23184;51.902;12.836;2022-09-13T05:37:33;15.10;;;9.32;;
37299;SDS011;23184;51.902;12.836;2022-09-13T05:39:58;10.80;;;8.40;;
37299;SDS011;23184;51.902;12.836;2022-09-13T05:42:24;12.52;;;8.43;;
37299;SDS011;23184;51.902;12.836;2022-09-13T05:44:49;15.68;;;8.70;;
37299;SDS011;23184;51.902;12.836;2022-09-13T05:47:15;12.15;;;8.45;;
37299;SDS011;23184;51.902;12.836;2022-09-13T05:49:40;11.68;;;9.02;;
37299;SDS011;23184;51.902;12.836;2022-09-13T05:52:06;11.27;;;8.73;;
37299;SDS011;23184;51.902;12.836;2022-09-13T05:54:31;15.63;;;9.65;;
37299;SDS011;23184;51.902;12.836;2022-09-13T05:56:58;11.93;;;9.45;;
37299;SDS011;23184;51.902;12.836;2022-09-13T05:59:23;16.02;;;11.48;;
37299;SDS011;23184;51.902;12.836;2022-09-13T06:01:49;15.13;;;11.13;;
37299;SDS011;23184;51.902;12.836;2022-09-13T06:04:14;14.63;;;11.63;;
37299;SDS011;23184;51.902;12.836;2022-09-13T06:06:40;19.20;;;10.40;;
37299;SDS011;23184;51.902;12.836;2022-09-13T06:09:06;15.63;;;11.35;;
37299;SDS011;23184;51.902;12.836;2022-09-13T06:11:32;15.93;;;11.15;;
37299;SDS011;23184;51.902;12.836;2022-09-13T06:13:58;16.23;;;11.32;;
37299;SDS011;23184;51.902;12.836;2022-09-13T06:16:23;15.40;;;11.60;;
37299;SDS011;23184;51.902;12.836;2022-09-13T06:18:49;15.98;;;11.95;;
37299;SDS011;23184;51.902;12.836;2022-09-13T06:21:16;16.15;;;11.68;;
37299;SDS011;23184;51.902;12.836;2022-09-13T06:23:46;15.70;;;12.20;;
37299;SDS011;23184;51.902;12.836;2022-09-13T06:26:15;17.92;;;12.05;;
37299;SDS011;23184;51.902;12.836;2022-09-13T06:28:45;18.85;;;12.73;;
37299;SDS011;23184;51.902;12.836;2022-09-13T06:31:13;14.23;;;12.65;;
37299;SDS011;23184;51.902;12.836;2022-09-13T06:33:41;18.10;;;12.88;;
37299;SDS011;23184;51.902;12.836;2022-09-13T06:36:08;18.67;;;13.85;;
37299;SDS011;23184;51.902;12.836;2022-09-13T06:38:35;17.98;;;14.13;;
37299;SDS011;23184;51.902;12.836;2022-09-13T06:41:05;19.60;;;14.52;;
37299;SDS011;23184;51.902;12.836;2022-09-13T06:46:00;19.25;;;13.27;;
37299;SDS011;23184;51.902;12.836;2022-09-13T06:48:32;19.63;;;14.10;;
37299;SDS011;23184;51.902;12.836;2022-09-13T06:51:00;19.00;;;14.75;;
37299;SDS011;23184;51.902;12.836;2022-09-13T06:53:26;18.58;;;14.77;;
37299;SDS011;23184;51.902;12.836;2022-09-13T06:55:59;19.15;;;14.85;;
37299;SDS011;23184;51.902;12.836;2022-09-13T06:58:36;19.98;;;13.82;;
37299;SDS011;23184;51.902;12.836;2022-09-13T07:01:06;17.77;;;14.30;;
37299;SDS011;23184;51.902;12.836;2022-09-13T07:03:35;21.08;;;14.20;;
37299;SDS011;23184;51.902;12.836;2022-09-13T07:06:08;19.95;;;13.88;;
37299;SDS011;23184;51.902;12.836;2022-09-13T07:08:41;16.65;;;12.80;;
37299;SDS011;23184;51.902;12.836;2022-09-13T07:11:08;19.90;;;12.85;;
37299;SDS011;23184;51.902;12.836;2022-09-13T07:13:35;15.23;;;11.82;;
37299;SDS011;23184;51.902;12.836;2022-09-13T07:16:01;16.45;;;11.40;;
37299;SDS011;23184;51.902;12.836;2022-09-13T07:18:29;13.82;;;11.15;;
37299;SDS011;23184;51.902;12.836;2022-09-13T07:20:58;17.77;;;11.15;;
37299;SDS011;23184;51.902;12.836;2022-09-13T07:23:29;14.98;;;9.48;;
37299;SDS011;23184;51.902;12.836;2022-09-13T07:25:55;13.18;;;9.90;;
37299;SDS011;23184;51.902;12.836;2022-09-13T07:28:26;13.30;;;9.90;;
37299;SDS011;23184;51.902;12.836;2022-09-13T07:30:53;12.27;;;9.35;;
37299;SDS011;23184;51.902;12.836;2022-09-13T07:33:18;14.10;;;9.93;;
37299;SDS011;23184;51.902;12.836;2022-09-13T07:35:44;12.18;;;8.80;;
37299;SDS011;23184;51.902;12.836;2022-09-13T07:38:10;16.15;;;8.75;;
37299;SDS011;23184;51.902;12.836;2022-09-13T07:40:35;13.93;;;8.45;;
37299;SDS011;23184;51.902;12.836;2022-09-13T07:43:01;13.55;;;8.75;;
37299;SDS011;23184;51.902;12.836;2022-09-13T07:45:26;11.00;;;8.65;;
37299;SDS011;23184;51.902;12.836;2022-09-13T07:47:52;9.95;;;8.48;;
37299;SDS011;23184;51.902;12.836;2022-09-13T07:50:18;13.05;;;8.43;;
37299;SDS011;23184;51.902;12.836;2022-09-13T07:52:44;13.90;;;8.68;;
37299;SDS011;23184;51.902;12.836;2022-09-13T07:55:10;14.95;;;10.13;;
37299;SDS011;23184;51.902;12.836;2022-09-13T07:57:35;14.25;;;11.02;;
37299;SDS011;23184;51.902;12.836;2022-09-13T08:00:01;18.30;;;11.95;;
37299;SDS011;23184;51.902;12.836;2022-09-13T08:02:26;14.60;;;10.77;;
37299;SDS011;23184;51.902;12.836;2022-09-13T08:04:52;17.17;;;11.65;;
37299;SDS011;23184;51.902;12.836;2022-09-13T08:07:18;16.70;;;12.50;;
37299;SDS011;23184;51.902;12.836;2022-09-13T08:09:43;19.45;;;12.27;;
37299;SDS011;23184;51.902;12.836;2022-09-13T08:12:08;16.35;;;11.75;;
37299;SDS011;23184;51.902;12.836;2022-09-13T08:14:34;14.68;;;11.88;;
37299;SDS011;23184;51.902;12.836;2022-09-13T08:16:59;17.40;;;12.43;;
37299;SDS011;23184;51.902;12.836;2022-09-13T08:19:25;15.25;;;11.68;;
37299;SDS011;23184;51.902;12.836;2022-09-13T08:21:51;15.93;;;11.93;;
37299;SDS011;23184;51.902;12.836;2022-09-13T08:24:17;18.45;;;13.10;;
37299;SDS011;23184;51.902;12.836;2022-09-13T08:26:45;18.27;;;14.00;;
37299;SDS011;23184;51.902;12.836;2022-09-13T08:29:11;19.08;;;14.23;;
37299;SDS011;23184;51.902;12.836;2022-09-13T08:31:38;17.42;;;13.55;;
37299;SDS011;23184;51.902;12.836;2022-09-13T08:34:03;16.55;;;12.73;;
37299;SDS011;23184;51.902;12.836;2022-09-13T08:36:31;17.48;;;12.98;;
37299;SDS011;23184;51.902;12.836;2022-09-13T08:38:57;17.05;;;11.90;;
37299;SDS011;23184;51.902;12.836;2022-09-13T08:41:46;20.77;;;13.23;;
37299;SDS011;23184;51.902;12.836;2022-09-13T08:44:34;16.17;;;12.13;;
37299;SDS011;23184;51.902;12.836;2022-09-13T08:47:08;17.33;;;12.45;;
37299;SDS011;23184;51.902;12.836;2022-09-13T08:49:47;15.10;;;11.45;;
37299;SDS011;23184;51.902;12.836;2022-09-13T08:52:22;16.55;;;12.15;;
37299;SDS011;23184;51.902;12.836;2022-09-13T08:54:58;15.85;;;12.00;;
37299;SDS011;23184;51.902;12.836;2022-09-13T08:57:31;18.33;;;11.40;;
37299;SDS011;23184;51.902;12.836;2022-09-13T09:00:13;15.02;;;12.15;;
37299;SDS011;23184;51.902;12.836;2022-09-13T09:05:24;14.63;;;11.60;;
37299;SDS011;23184;51.902;12.836;2022-09-13T09:07:56;17.08;;;11.30;;
37299;SDS011;23184;51.902;12.836;2022-09-13T09:10:27;16.88;;;11.60;;
37299;SDS011;23184;51.902;12.836;2022-09-13T09:13:07;14.40;;;11.00;;
37299;SDS011;23184;51.902;12.836;2022-09-13T09:15:41;13.40;;;9.93;;
37299;SDS011;23184;51.902;12.836;2022-09-13T09:18:11;14.20;;;10.15;;
37299;SDS011;23184;51.902;12.836;2022-09-13T09:20:57;14.43;;;10.55;;
37299;SDS011;23184;51.902;12.836;2022-09-13T09:23:29;14.45;;;10.25;;
37299;SDS011;23184;51.902;12.836;2022-09-13T09:26:19;14.80;;;11.07;;
37299;SDS011;23184;51.902;12.836;2022-09-13T09:29:00;13.25;;;10.93;;
37299;SDS011;23184;51.902;12.836;2022-09-13T09:34:35;15.40;;;10.82;;
37299;SDS011;23184;51.902;12.836;2022-09-13T09:37:22;12.55;;;10.60;;
37299;SDS011;23184;51.902;12.836;2022-09-13T09:39:50;15.57;;;10.45;;
37299;SDS011;23184;51.902;12.836;2022-09-13T09:42:18;12.57;;;10.50;;
37299;SDS011;23184;51.902;12.836;2022-09-13T09:44:49;17.20;;;11.55;;
37299;SDS011;23184;51.902;12.836;2022-09-13T09:47:18;15.85;;;11.45;;
37299;SDS011;23184;51.902;12.836;2022-09-13T09:49:50;14.50;;;11.00;;
37299;SDS011;23184;51.902;12.836;2022-09-13T09:52:37;14.90;;;10.35;;
37299;SDS011;23184;51.902;12.836;2022-09-13T09:55:27;14.82;;;10.70;;
37299;SDS011;23184;51.902;12.836;2022-09-13T09:58:06;13.15;;;10.57;;
37299;SDS011;23184;51.902;12.836;2022-09-13T10:00:33;12.70;;;10.23;;
37299;SDS011;23184;51.902;12.836;2022-09-13T10:03:04;12.80;;;10.40;;
37299;SDS011;23184;51.902;12.836;2022-09-13T10:05:33;15.90;;;11.10;;
37299;SDS011;23184;51.902;12.836;2022-09-13T10:08:00;12.57;;;10.15;;
37299;SDS011;23184;51.902;12.836;2022-09-13T10:10:35;15.77;;;10.80;;
37299;SDS011;23184;51.902;12.836;2022-09-13T10:13:03;9.70;;;8.32;;
37299;SDS011;23184;51.902;12.836;2022-09-13T10:15:31;11.80;;;9.02;;
37299;SDS011;23184;51.902;12.836;2022-09-13T10:18:00;13.50;;;8.98;;
37299;SDS011;23184;51.902;12.836;2022-09-13T10:20:28;13.85;;;9.48;;
37299;SDS011;23184;51.902;12.836;2022-09-13T10:25:38;10.13;;;8.20;;
37299;SDS011;23184;51.902;12.836;2022-09-13T10:28:09;14.52;;;8.15;;
37299;SDS011;23184;51.902;12.836;2022-09-13T10:30:54;9.13;;;6.65;;
37299;SDS011;23184;51.902;12.836;2022-09-13T10:35:52;10.35;;;6.70;;
37299;SDS011;23184;51.902;12.836;2022-09-13T10:41:01;9.07;;;6.47;;
37299;SDS011;23184;51.902;12.836;2022-09-13T10:43:30;8.07;;;6.95;;
37299;SDS011;23184;51.902;12.836;2022-09-13T10:45:57;10.52;;;7.40;;
37299;SDS011;23184;51.902;12.836;2022-09-13T10:48:23;8.68;;;6.90;;
37299;SDS011;23184;51.902;12.836;2022-09-13T10:51:16;9.60;;;7.55;;
37299;SDS011;23184;51.902;12.836;2022-09-13T10:54:08;10.65;;;6.80;;
37299;SDS011;23184;51.902;12.836;2022-09-13T10:56:50;8.85;;;6.47;;
37299;SDS011;23184;51.902;12.836;2022-09-13T11:07:55;9.20;;;6.80;;
37299;SDS011;23184;51.902;12.836;2022-09-13T11:10:40;10.38;;;7.30;;
37299;SDS011;23184;51.902;12.836;2022-09-13T11:13:43;10.05;;;6.30;;
37299;SDS011;23184;51.902;12.836;2022-09-13T11:16:33;10.10;;;6.93;;
37299;SDS011;23184;51.902;12.836;2022-09-13T11:25:02;10.40;;;7.00;;
37299;SDS011;23184;51.902;12.836;2022-09-13T11:28:12;10.32;;;6.45;;
37299;SDS011;23184;51.902;12.836;2022-09-13T11:30:56;10.98;;;7.28;;
37299;SDS011;23184;51.902;12.836;2022-09-13T11:33:41;10.70;;;6.43;;
37299;SDS011;23184;51.902;12.836;2022-09-13T11:38:51;10.57;;;7.25;;
37299;SDS011;23184;51.902;12.836;2022-09-13T11:47:02;13.45;;;7.88;;
37299;SDS011;23184;51.902;12.836;2022-09-13T11:53:02;11.32;;;7.38;;
37299;SDS011;23184;51.902;12.836;2022-09-13T11:55:41;12.27;;;7.50;;
37299;SDS011;23184;51.902;12.836;2022-09-13T11:58:15;10.10;;;7.45;;
37299;SDS011;23184;51.902;12.836;2022-09-13T12:00:53;11.07;;;7.70;;
37299;SDS011;23184;51.902;12.836;2022-09-13T12:05:59;9.48;;;7.13;;
37299;SDS011;23184;51.902;12.836;2022-09-13T12:08:34;11.77;;;7.65;;
37299;SDS011;23184;51.902;12.836;2022-09-13T12:11:02;12.63;;;7.57;;
37299;SDS011;23184;51.902;12.836;2022-09-13T12:13:38;13.43;;;8.38;;
37299;SDS011;23184;51.902;12.836;2022-09-13T12:18:42;11.38;;;7.45;;
37299;SDS011;23184;51.902;12.836;2022-09-13T12:21:14;12.60;;;8.60;;
37299;SDS011;23184;51.902;12.836;2022-09-13T12:29:19;10.15;;;8.02;;
37299;SDS011;23184;51.902;12.836;2022-09-13T12:31:51;13.63;;;9.38;;
37299;SDS011;23184;51.902;12.836;2022-09-13T12:34:24;12.73;;;8.73;;
37299;SDS011;23184;51.902;12.836;2022-09-13T12:36:59;10.70;;;8.77;;
37299;SDS011;23184;51.902;12.836;2022-09-13T12:42:46;14.35;;;9.75;;
37299;SDS011;23184;51.902;12.836;2022-09-13T12:51:30;14.57;;;9.35;;
37299;SDS011;23184;51.902;12.836;2022-09-13T12:54:15;11.43;;;9.35;;
37299;SDS011;23184;51.902;12.836;2022-09-13T12:59:41;11.65;;;9.20;;
37299;SDS011;23184;51.902;12.836;2022-09-13T13:02:23;13.05;;;8.82;;
37299;SDS011;23184;51.902;12.836;2022-09-13T13:05:03;13.68;;;9.02;;
37299;SDS011;23184;51.902;12.836;2022-09-13T13:07:39;13.95;;;8.43;;
37299;SDS011;23184;51.902;12.836;2022-09-13T13:10:20;13.15;;;8.15;;
37299;SDS011;23184;51.902;12.836;2022-09-13T13:13:08;16.55;;;9.48;;
37299;SDS011;23184;51.902;12.836;2022-09-13T13:23:31;11.23;;;8.35;;
37299;SDS011;23184;51.902;12.836;2022-09-13T13:32:04;14.60;;;9.23;;
37299;SDS011;23184;51.902;12.836;2022-09-13T13:34:35;10.75;;;8.98;;
37299;SDS011;23184;51.902;12.836;2022-09-13T13:39:33;10.82;;;9.55;;
37299;SDS011;23184;51.902;12.836;2022-09-13T13:49:45;15.13;;;9.48;;
37299;SDS011;23184;51.902;12.836;2022-09-13T13:57:33;13.77;;;7.75;;
37299;SDS011;23184;51.902;12.836;2022-09-13T14:00:22;7.97;;;6.82;;
37299;SDS011;23184;51.902;12.836;2022-09-13T14:16:08;11.85;;;6.88;;
37299;SDS011;23184;51.902;12.836;2022-09-13T14:19:14;9.32;;;6.20;;
37299;SDS011;23184;51.902;12.836;2022-09-13T14:21:45;12.48;;;6.90;;
37299;SDS011;23184;51.902;12.836;2022-09-13T14:24:28;10.23;;;6.45;;
37299;SDS011;23184;51.902;12.836;2022-09-13T14:26:56;11.05;;;6.97;;
37299;SDS011;23184;51.902;12.836;2022-09-13T14:29:23;8.10;;;6.53;;
37299;SDS011;23184;51.902;12.836;2022-09-13T14:31:50;10.40;;;6.35;;
37299;SDS011;23184;51.902;12.836;2022-09-13T14:34:19;8.80;;;6.03;;
37299;SDS011;23184;51.902;12.836;2022-09-13T14:36:51;10.48;;;6.53;;
37299;SDS011;23184;51.902;12.836;2022-09-13T14:39:22;11.00;;;6.90;;
37299;SDS011;23184;51.902;12.836;2022-09-13T14:41:48;12.15;;;6.55;;
37299;SDS011;23184;51.902;12.836;2022-09-13T14:44:26;8.70;;;6.57;;
37299;SDS011;23184;51.902;12.836;2022-09-13T14:46:58;8.80;;;6.30;;
37299;SDS011;23184;51.902;12.836;2022-09-13T14:49:35;13.15;;;7.03;;
37299;SDS011;23184;51.902;12.836;2022-09-13T14:54:36;12.30;;;6.78;;
37299;SDS011;23184;51.902;12.836;2022-09-13T14:57:06;9.48;;;6.25;;
37299;SDS011;23184;51.902;12.836;2022-09-13T15:02:18;11.15;;;6.68;;
37299;SDS011;23184;51.902;12.836;2022-09-13T15:04:47;10.52;;;6.63;;
37299;SDS011;23184;51.902;12.836;2022-09-13T15:07:21;13.98;;;7.53;;
37299;SDS011;23184;51.902;12.836;2022-09-13T15:09:56;8.60;;;6.88;;
37299;SDS011;23184;51.902;12.836;2022-09-13T15:12:29;10.25;;;6.90;;
37299;SDS011;23184;51.902;12.836;2022-09-13T15:17:51;8.27;;;6.30;;
37299;SDS011;23184;51.902;12.836;2022-09-13T15:20:22;10.43;;;6.00;;
37299;SDS011;23184;51.902;12.836;2022-09-13T15:22:49;7.95;;;6.20;;
37299;SDS011;23184;51.902;12.836;2022-09-13T15:25:18;10.77;;;6.47;;
37299;SDS011;23184;51.902;12.836;2022-09-13T15:27:47;11.95;;;7.10;;
37299;SDS011;23184;51.902;12.836;2022-09-13T15:30:20;10.80;;;6.95;;
37299;SDS011;23184;51.902;12.836;2022-09-13T15:32:49;12.68;;;6.85;;
37299;SDS011;23184;51.902;12.836;2022-09-13T15:35:37;11.82;;;8.10;;
37299;SDS011;23184;51.902;12.836;2022-09-13T15:38:15;16.30;;;10.10;;
37299;SDS011;23184;51.902;12.836;2022-09-13T15:40:41;14.93;;;9.40;;
37299;SDS011;23184;51.902;12.836;2022-09-13T15:43:12;11.45;;;9.43;;
37299;SDS011;23184;51.902;12.836;2022-09-13T15:45:37;12.15;;;9.68;;
37299;SDS011;23184;51.902;12.836;2022-09-13T15:48:03;14.25;;;10.35;;
37299;SDS011;23184;51.902;12.836;2022-09-13T15:50:29;13.57;;;9.73;;
37299;SDS011;23184;51.902;12.836;2022-09-13T15:52:57;12.98;;;9.23;;
37299;SDS011;23184;51.902;12.836;2022-09-13T15:55:23;9.32;;;7.32;;
37299;SDS011;23184;51.902;12.836;2022-09-13T15:57:50;11.18;;;8.07;;
37299;SDS011;23184;51.902;12.836;2022-09-13T16:02:42;9.93;;;7.53;;
37299;SDS011;23184;51.902;12.836;2022-09-13T16:05:08;10.30;;;7.63;;
37299;SDS011;23184;51.902;12.836;2022-09-13T16:07:35;10.38;;;7.45;;
37299;SDS011;23184;51.902;12.836;2022-09-13T16:10:02;11.82;;;6.88;;
37299;SDS011;23184;51.902;12.836;2022-09-13T16:12:28;12.98;;;7.05;;
37299;SDS011;23184;51.902;12.836;2022-09-13T16:14:53;9.57;;;6.85;;
37299;SDS011;23184;51.902;12.836;2022-09-13T16:17:22;10.82;;;7.05;;
37299;SDS011;23184;51.902;12.836;2022-09-13T16:19:49;8.80;;;6.70;;
37299;SDS011;23184;51.902;12.836;2022-09-13T16:22:15;8.32;;;5.88;;
37299;SDS011;23184;51.902;12.836;2022-09-13T16:24:41;7.95;;;6.32;;
37299;SDS011;23184;51.902;12.836;2022-09-13T16:27:06;9.45;;;6.40;;
37299;SDS011;23184;51.902;12.836;2022-09-13T16:29:34;7.32;;;5.68;;
37299;SDS011;23184;51.902;12.836;2022-09-13T16:32:00;14.52;;;7.43;;
37299;SDS011;23184;51.902;12.836;2022-09-13T16:34:25;9.00;;;6.70;;
37299;SDS011;23184;51.902;12.836;2022-09-13T16:36:51;9.38;;;6.50;;
37299;SDS011;23184;51.902;12.836;2022-09-13T16:39:17;8.15;;;6.07;;
37299;SDS011;23184;51.902;12.836;2022-09-13T16:41:43;9.57;;;6.60;;
37299;SDS011;23184;51.902;12.836;2022-09-13T16:44:08;6.35;;;5.60;;
37299;SDS011;23184;51.902;12.836;2022-09-13T16:46:34;7.78;;;5.80;;
37299;SDS011;23184;51.902;12.836;2022-09-13T16:49:00;8.18;;;6.38;;
37299;SDS011;23184;51.902;12.836;2022-09-13T16:51:25;7.68;;;5.63;;
37299;SDS011;23184;51.902;12.836;2022-09-13T16:53:51;8.32;;;5.90;;
37299;SDS011;23184;51.902;12.836;2022-09-13T16:56:19;7.97;;;5.80;;
37299;SDS011;23184;51.902;12.836;2022-09-13T16:58:46;6.68;;;5.35;;
37299;SDS011;23184;51.902;12.836;2022-09-13T17:01:14;7.57;;;5.32;;
37299;SDS011;23184;51.902;12.836;2022-09-13T17:03:42;6.90;;;5.05;;
37299;SDS011;23184;51.902;12.836;2022-09-13T17:06:09;7.20;;;5.50;;
37299;SDS011;23184;51.902;12.836;2022-09-13T17:08:37;8.25;;;6.32;;
37299;SDS011;23184;51.902;12.836;2022-09-13T17:11:04;8.65;;;5.57;;